Terminal Aerodrome Forecast
Issued by NWS Cleveland, OH

Home | Current Version | Previous Version | Text Only | Print | Product List | Glossary Off
Versions: 1 2 3 4 5 6 7 8 9 10 11 12 13 14 15 16 17 18 19 20 21 22

000
FTUS41 KCLE 210900 AAA
TAFERI
TAF AMD
KERI 210925Z 2109/2206 33008KT 6SM BR BKN015 OVC025
      TEMPO 2109/2113 3SM -RA BR BKN008
     FM211700 32012KT 6SM -SHRA BR OVC012=

USA.gov is the U.S. government's official web portal to all federal, state and local government web resources and services.